Time;durP1;ratioP1;P1;durP2;ratioP2;P2;SDS_P1;SDS_P2;PMS_P1;PMS_P2;Temp;Humidity;BMP_temperature;BMP_pressure;BME280_temperature;BME280_humidity;BME280_pressure;Samples;Min_cycle;Max_cycle;Signal;HPM_P1;HPM_P2
2024/02/19 00:01:25;;;;;;;14.02;7.93;;;8.10;99.90;;;;;;5082249;28;20028;-54
2024/02/19 00:03:52;;;;;;;12.80;8.30;;;8.20;99.90;;;;;;5083010;28;20032;-53
2024/02/19 00:06:17;;;;;;;14.27;9.50;;;8.10;99.90;;;;;;5086236;28;20557;-53
2024/02/19 00:08:43;;;;;;;14.30;9.20;;;8.20;99.90;;;;;;5078138;28;20139;-54
2024/02/19 00:11:08;;;;;;;15.63;8.80;;;8.10;99.90;;;;;;5072858;28;20039;-53
2024/02/19 00:13:35;;;;;;;10.68;7.45;;;8.20;99.90;;;;;;5077792;28;20032;-50
2024/02/19 00:16:01;;;;;;;12.30;8.85;;;8.20;99.90;;;;;;5083869;28;20024;-51
2024/02/19 00:18:26;;;;;;;17.85;9.55;;;8.20;99.90;;;;;;5081937;28;20032;-49
2024/02/19 00:20:52;;;;;;;11.40;7.70;;;8.20;99.90;;;;;;5081495;28;20024;-54
2024/02/19 00:23:17;;;;;;;10.98;7.55;;;8.20;99.90;;;;;;5081676;28;20031;-53
2024/02/19 00:25:43;;;;;;;12.82;7.10;;;8.30;99.90;;;;;;5082848;28;20040;-54
2024/02/19 00:28:10;;;;;;;11.55;8.20;;;8.20;99.90;;;;;;5078517;28;20050;-55
2024/02/19 00:30:36;;;;;;;10.25;6.82;;;8.30;99.90;;;;;;5082276;28;20039;-51
2024/02/19 00:33:01;;;;;;;11.50;7.75;;;8.30;99.90;;;;;;5085087;28;20036;-54
2024/02/19 00:35:27;;;;;;;9.35;6.72;;;8.30;99.90;;;;;;5087452;28;20020;-50
2024/02/19 00:37:52;;;;;;;9.13;6.82;;;8.30;99.90;;;;;;5081446;28;20085;-54
2024/02/19 00:40:19;;;;;;;9.52;5.80;;;8.30;99.90;;;;;;5082130;28;20024;-53
2024/02/19 00:42:44;;;;;;;10.45;7.50;;;8.30;99.90;;;;;;5081604;28;20119;-53
2024/02/19 00:45:11;;;;;;;10.93;6.80;;;8.30;99.90;;;;;;5082330;28;20107;-52
2024/02/19 00:47:36;;;;;;;8.50;6.30;;;8.40;99.90;;;;;;5085233;28;20031;-52
2024/02/19 00:50:03;;;;;;;9.07;5.80;;;8.40;99.90;;;;;;5078078;28;20024;-51
2024/02/19 00:52:29;;;;;;;8.43;5.55;;;8.40;99.90;;;;;;5081854;28;20080;-54
2024/02/19 00:54:57;;;;;;;8.23;5.85;;;8.40;99.90;;;;;;5080534;28;20047;-53
2024/02/19 00:57:23;;;;;;;9.77;5.60;;;8.40;99.90;;;;;;5075996;28;20026;-54
2024/02/19 00:59:48;;;;;;;8.00;5.55;;;8.40;99.90;;;;;;5081433;28;20145;-55
2024/02/19 01:02:14;;;;;;;8.85;5.47;;;8.50;99.90;;;;;;5070953;28;20093;-54
2024/02/19 01:04:40;;;;;;;7.68;5.47;;;8.50;99.90;;;;;;5085092;28;20710;-54
2024/02/19 01:07:05;;;;;;;12.65;6.88;;;8.50;99.90;;;;;;5075889;28;20024;-52
2024/02/19 01:09:31;;;;;;;7.53;5.38;;;8.50;99.90;;;;;;5077151;28;20595;-51
2024/02/19 01:11:56;;;;;;;9.68;6.45;;;8.50;99.90;;;;;;5074779;28;20145;-52
2024/02/19 01:14:22;;;;;;;8.23;5.90;;;8.50;99.90;;;;;;5077422;28;20042;-52
2024/02/19 01:16:47;;;;;;;10.00;6.65;;;8.50;99.90;;;;;;5080233;28;20105;-53
2024/02/19 01:19:13;;;;;;;9.65;5.38;;;8.50;99.90;;;;;;5085773;28;20016;-52
2024/02/19 01:21:38;;;;;;;9.73;5.57;;;8.50;99.90;;;;;;5083049;28;20024;-50
2024/02/19 01:24:04;;;;;;;8.88;5.20;;;8.50;99.90;;;;;;5083054;28;20028;-53
2024/02/19 01:26:30;;;;;;;8.57;5.53;;;8.50;99.90;;;;;;5077005;28;20477;-52
2024/02/19 01:28:56;;;;;;;9.60;6.25;;;8.50;99.90;;;;;;5081460;28;20477;-55
2024/02/19 01:31:22;;;;;;;7.72;5.47;;;8.50;99.90;;;;;;5080905;28;20081;-51
2024/02/19 01:33:48;;;;;;;8.93;5.85;;;8.50;99.90;;;;;;5076639;28;20453;-53
2024/02/19 01:36:13;;;;;;;9.65;6.28;;;8.50;99.90;;;;;;5082014;28;20066;-53
2024/02/19 01:38:41;;;;;;;7.82;6.05;;;8.50;99.90;;;;;;5076976;28;20028;-53
2024/02/19 01:41:06;;;;;;;8.70;5.32;;;8.50;99.90;;;;;;5079648;28;20028;-55
2024/02/19 01:43:32;;;;;;;7.65;5.30;;;8.50;99.90;;;;;;5080384;28;20020;-54
2024/02/19 01:45:58;;;;;;;8.63;5.65;;;8.50;99.90;;;;;;5080549;28;20069;-53
2024/02/19 01:48:23;;;;;;;7.40;5.15;;;8.50;99.90;;;;;;5079622;28;20107;-51
2024/02/19 01:50:49;;;;;;;7.10;5.30;;;8.50;99.90;;;;;;5080126;28;20052;-55
2024/02/19 01:53:16;;;;;;;9.38;5.00;;;8.50;99.90;;;;;;5079456;28;20027;-54
2024/02/19 01:55:42;;;;;;;7.78;5.20;;;8.50;99.90;;;;;;5080468;28;20085;-53
2024/02/19 01:58:10;;;;;;;7.43;5.45;;;8.50;99.90;;;;;;5079173;28;20055;-52
2024/02/19 02:00:38;;;;;;;10.25;6.25;;;8.50;99.90;;;;;;5079116;28;20118;-54
2024/02/19 02:03:04;;;;;;;9.07;5.60;;;8.50;99.90;;;;;;5075525;28;20016;-54
2024/02/19 02:05:30;;;;;;;6.75;4.80;;;8.50;99.90;;;;;;5079443;28;20035;-54
2024/02/19 02:07:57;;;;;;;7.90;5.60;;;8.50;99.90;;;;;;5075104;28;20032;-54
2024/02/19 02:10:22;;;;;;;7.63;5.35;;;8.50;99.90;;;;;;5080150;28;20024;-52
2024/02/19 02:12:48;;;;;;;8.63;5.75;;;8.50;99.90;;;;;;5081836;28;20082;-51
2024/02/19 02:15:13;;;;;;;8.73;5.32;;;8.50;99.90;;;;;;5081103;28;20137;-49
2024/02/19 02:17:43;;;;;;;7.30;5.43;;;8.50;99.90;;;;;;5082634;28;20036;-54
2024/02/19 02:20:10;;;;;;;6.18;4.95;;;8.50;99.90;;;;;;5080631;28;20022;-54
2024/02/19 02:22:36;;;;;;;6.60;4.63;;;8.50;99.90;;;;;;5081911;28;20481;-48
2024/02/19 02:25:02;;;;;;;10.27;5.10;;;8.60;99.90;;;;;;5080367;28;20032;-53
2024/02/19 02:27:29;;;;;;;6.35;4.70;;;8.50;99.90;;;;;;5088793;28;20028;-50
2024/02/19 02:29:54;;;;;;;6.88;4.82;;;8.60;99.90;;;;;;5084159;28;20477;-52
2024/02/19 02:32:20;;;;;;;6.25;4.13;;;8.60;99.90;;;;;;5085387;28;20050;-55
2024/02/19 02:34:45;;;;;;;5.05;4.15;;;8.50;99.90;;;;;;5084259;28;20032;-51
2024/02/19 02:37:12;;;;;;;6.40;4.13;;;8.60;99.90;;;;;;5083327;28;20020;-54
2024/02/19 02:39:39;;;;;;;10.55;4.40;;;8.60;99.90;;;;;;5080543;28;20012;-55
2024/02/19 02:42:05;;;;;;;6.32;3.70;;;8.60;99.90;;;;;;5085057;28;20020;-53
2024/02/19 02:44:31;;;;;;;5.25;3.83;;;8.60;99.90;;;;;;5086558;28;20689;-55
2024/02/19 02:46:56;;;;;;;6.55;4.28;;;8.60;99.90;;;;;;5078831;28;20034;-54
2024/02/19 02:49:22;;;;;;;6.28;4.22;;;8.60;99.90;;;;;;5086929;28;20016;-52
2024/02/19 02:51:47;;;;;;;6.05;4.18;;;8.60;99.90;;;;;;5083896;28;20471;-52
2024/02/19 02:54:13;;;;;;;7.38;3.80;;;8.60;99.90;;;;;;5082846;28;20505;-52
2024/02/19 02:56:38;;;;;;;7.45;4.15;;;8.60;99.90;;;;;;5085577;28;20016;-55
2024/02/19 02:59:04;;;;;;;5.88;4.32;;;8.60;99.90;;;;;;5085308;28;20028;-52
2024/02/19 03:01:30;;;;;;;4.72;3.45;;;8.60;99.90;;;;;;5076364;28;20398;-54
2024/02/19 03:03:56;;;;;;;5.15;2.95;;;8.60;99.90;;;;;;5082668;28;20024;-51
2024/02/19 03:06:22;;;;;;;5.20;3.53;;;8.60;99.90;;;;;;5078438;28;20031;-48
2024/02/19 03:08:47;;;;;;;6.00;3.72;;;8.60;99.90;;;;;;5081295;28;20104;-53
2024/02/19 03:11:13;;;;;;;7.93;3.65;;;8.60;99.90;;;;;;5084314;28;20032;-49
2024/02/19 03:13:38;;;;;;;5.15;3.78;;;8.70;99.90;;;;;;5082252;28;20059;-50
2024/02/19 03:16:05;;;;;;;3.75;3.10;;;8.70;99.90;;;;;;5082647;28;20020;-49
2024/02/19 03:18:32;;;;;;;5.38;3.67;;;8.60;99.90;;;;;;5082318;28;20020;-50
2024/02/19 03:20:58;;;;;;;4.45;3.10;;;8.60;99.90;;;;;;5082184;28;20090;-48
2024/02/19 03:23:23;;;;;;;5.15;3.50;;;8.70;99.90;;;;;;5082554;28;20028;-49
2024/02/19 03:25:49;;;;;;;4.47;3.00;;;8.60;99.90;;;;;;5081974;28;20686;-50
2024/02/19 03:28:15;;;;;;;6.88;4.18;;;8.60;99.90;;;;;;5083924;28;20032;-49
2024/02/19 03:30:40;;;;;;;4.00;3.20;;;8.60;99.90;;;;;;5082064;28;20449;-50
2024/02/19 03:33:06;;;;;;;4.45;3.42;;;8.60;99.90;;;;;;5083969;28;20509;-51
2024/02/19 03:35:31;;;;;;;5.40;3.17;;;8.60;99.90;;;;;;5082005;28;20115;-53
2024/02/19 03:37:57;;;;;;;5.90;3.88;;;8.60;99.90;;;;;;5083805;28;20398;-49
2024/02/19 03:40:23;;;;;;;9.43;5.43;;;8.60;99.90;;;;;;5083107;28;20085;-52
2024/02/19 03:42:48;;;;;;;8.63;5.55;;;8.60;99.90;;;;;;5085700;28;20115;-51
2024/02/19 03:45:14;;;;;;;11.65;5.93;;;8.60;99.90;;;;;;5082153;28;20107;-50
2024/02/19 03:47:41;;;;;;;7.68;4.70;;;8.60;99.90;;;;;;5084043;28;20086;-50
2024/02/19 03:50:06;;;;;;;5.65;4.25;;;8.60;99.90;;;;;;5083178;28;20020;-48
2024/02/19 03:52:32;;;;;;;7.80;5.32;;;8.60;99.90;;;;;;5081470;28;20032;-51
2024/02/19 03:54:57;;;;;;;7.80;4.43;;;8.60;99.90;;;;;;5089587;28;20058;-49
2024/02/19 03:57:23;;;;;;;6.57;3.80;;;8.60;99.90;;;;;;5085312;28;20035;-49
2024/02/19 03:59:49;;;;;;;5.40;3.28;;;8.60;99.90;;;;;;5082467;28;20032;-50
2024/02/19 04:02:15;;;;;;;5.53;3.67;;;8.60;99.90;;;;;;5082055;28;20485;-48
2024/02/19 04:04:40;;;;;;;6.93;4.20;;;8.60;99.90;;;;;;5083006;28;20031;-54
2024/02/19 04:07:06;;;;;;;5.38;4.07;;;8.60;99.90;;;;;;5085814;28;20101;-53
2024/02/19 04:09:31;;;;;;;5.07;3.50;;;8.60;99.90;;;;;;5082853;28;20102;-51
2024/02/19 04:11:57;;;;;;;4.57;3.38;;;8.60;99.90;;;;;;5082409;28;20089;-50
2024/02/19 04:14:24;;;;;;;2.75;2.38;;;8.60;99.90;;;;;;5086010;28;20028;-51
2024/02/19 04:16:50;;;;;;;3.40;2.60;;;8.60;99.90;;;;;;5082351;28;20048;-51
2024/02/19 04:19:17;;;;;;;3.72;2.45;;;8.60;99.90;;;;;;5087981;28;20074;-50
2024/02/19 04:21:44;;;;;;;3.35;2.45;;;8.60;99.90;;;;;;5081192;28;20077;-49
2024/02/19 04:24:09;;;;;;;5.25;3.28;;;8.60;99.90;;;;;;5080781;28;20028;-54
2024/02/19 04:26:35;;;;;;;3.45;2.70;;;8.60;99.90;;;;;;5083174;28;20024;-53
2024/02/19 04:29:00;;;;;;;2.55;2.35;;;8.60;99.90;;;;;;5080701;28;20020;-51
2024/02/19 04:31:26;;;;;;;4.95;2.60;;;8.60;99.90;;;;;;5081026;28;20028;-49
2024/02/19 04:33:51;;;;;;;2.80;2.40;;;8.60;99.90;;;;;;5083048;28;20097;-49
2024/02/19 04:36:16;;;;;;;4.32;2.50;;;8.60;99.90;;;;;;5079150;28;20067;-52
2024/02/19 04:38:42;;;;;;;4.00;2.20;;;8.60;99.90;;;;;;5087616;28;20036;-53
2024/02/19 04:41:08;;;;;;;2.80;2.00;;;8.60;99.90;;;;;;5077041;28;20098;-48
2024/02/19 04:43:33;;;;;;;3.42;2.10;;;8.60;99.90;;;;;;5082355;28;20039;-50
2024/02/19 04:45:59;;;;;;;2.72;2.30;;;8.60;99.90;;;;;;5083784;28;20022;-49
2024/02/19 04:48:24;;;;;;;3.75;2.53;;;8.60;99.90;;;;;;5083525;28;20055;-48
2024/02/19 04:50:50;;;;;;;4.95;2.10;;;8.60;99.90;;;;;;5082100;28;20028;-49
2024/02/19 04:53:18;;;;;;;2.63;2.00;;;8.60;99.90;;;;;;5082791;28;20062;-48
2024/02/19 04:55:45;;;;;;;3.22;2.42;;;8.60;99.90;;;;;;5080823;28;20012;-54
2024/02/19 04:58:10;;;;;;;2.67;2.00;;;8.60;99.90;;;;;;5083817;28;20016;-50
2024/02/19 05:00:37;;;;;;;3.90;2.75;;;8.70;99.90;;;;;;5082690;28;20397;-51
2024/02/19 05:03:04;;;;;;;1.65;1.50;;;8.60;99.90;;;;;;5079352;28;20016;-49
2024/02/19 05:05:29;;;;;;;2.13;1.92;;;8.70;99.90;;;;;;5080719;28;20024;-52
2024/02/19 05:07:55;;;;;;;2.35;2.00;;;8.70;99.90;;;;;;5080033;28;20049;-48
2024/02/19 05:10:21;;;;;;;2.55;2.25;;;8.70;99.90;;;;;;5080408;28;20031;-48
2024/02/19 05:12:46;;;;;;;5.63;2.00;;;8.70;99.90;;;;;;5082524;28;20028;-46
2024/02/19 05:15:12;;;;;;;2.17;1.67;;;8.70;99.90;;;;;;5077584;28;20084;-48
2024/02/19 05:17:38;;;;;;;2.20;1.80;;;8.70;99.90;;;;;;5077509;28;20036;-46
2024/02/19 05:20:07;;;;;;;1.67;1.50;;;8.70;99.90;;;;;;5073780;28;20066;-50
2024/02/19 05:22:33;;;;;;;1.70;1.60;;;8.70;99.90;;;;;;5078753;28;20523;-48
2024/02/19 05:24:59;;;;;;;1.52;1.42;;;8.70;99.90;;;;;;5073870;28;20023;-51
2024/02/19 05:27:25;;;;;;;1.45;1.30;;;8.70;99.90;;;;;;5079687;28;20021;-48
2024/02/19 05:29:51;;;;;;;1.73;1.42;;;8.80;99.90;;;;;;5081621;28;20019;-51
2024/02/19 05:32:17;;;;;;;1.45;1.30;;;8.80;99.90;;;;;;5080610;28;20493;-51
2024/02/19 05:34:42;;;;;;;1.88;1.30;;;8.80;99.90;;;;;;5079568;28;20044;-51
2024/02/19 05:37:07;;;;;;;1.45;1.30;;;8.70;99.90;;;;;;5079852;28;20024;-53
2024/02/19 05:39:33;;;;;;;1.30;1.17;;;8.70;99.90;;;;;;5079612;28;20026;-53
2024/02/19 05:41:58;;;;;;;1.13;0.90;;;8.70;99.90;;;;;;5079838;28;20024;-51
2024/02/19 05:44:24;;;;;;;0.93;0.93;;;8.70;99.90;;;;;;5081249;28;20486;-51
2024/02/19 05:46:49;;;;;;;0.90;0.90;;;8.60;99.90;;;;;;5075585;28;20085;-51
2024/02/19 05:49:15;;;;;;;0.63;0.60;;;8.60;99.90;;;;;;5076708;28;20021;-51
2024/02/19 05:51:44;;;;;;;1.40;0.82;;;8.60;99.90;;;;;;5073755;28;20035;-48
2024/02/19 05:54:09;;;;;;;1.05;0.70;;;8.50;99.90;;;;;;5077369;28;20020;-49
2024/02/19 05:56:35;;;;;;;1.25;0.77;;;8.50;99.90;;;;;;5072956;28;20035;-48
2024/02/19 05:59:01;;;;;;;1.23;0.70;;;8.50;99.90;;;;;;5080492;28;20023;-51
2024/02/19 06:01:26;;;;;;;1.17;1.00;;;8.40;99.90;;;;;;5075334;28;20047;-52
2024/02/19 06:03:52;;;;;;;0.73;0.70;;;8.40;99.90;;;;;;5075263;28;20481;-53
2024/02/19 06:06:17;;;;;;;0.77;0.77;;;8.40;99.90;;;;;;5075137;28;20033;-50
2024/02/19 06:08:43;;;;;;;1.88;1.20;;;8.40;99.90;;;;;;5072358;28;20043;-53
2024/02/19 06:11:08;;;;;;;1.75;1.30;;;8.40;99.90;;;;;;5078724;28;20473;-54
2024/02/19 06:13:34;;;;;;;1.17;0.90;;;8.40;99.90;;;;;;5077789;28;20139;-51
2024/02/19 06:15:59;;;;;;;1.50;1.20;;;8.30;99.90;;;;;;5079245;28;20617;-50
2024/02/19 06:18:25;;;;;;;1.52;1.10;;;8.30;99.90;;;;;;5078248;28;20024;-51
2024/02/19 06:20:51;;;;;;;1.60;1.20;;;8.30;99.90;;;;;;5078344;28;20633;-50
2024/02/19 06:23:16;;;;;;;1.60;1.38;;;8.30;99.90;;;;;;5078217;28;20089;-49
2024/02/19 06:25:45;;;;;;;2.10;1.77;;;8.30;99.90;;;;;;5079055;28;20066;-51
2024/02/19 06:28:11;;;;;;;2.47;1.70;;;8.30;99.90;;;;;;5079243;28;20103;-51
2024/02/19 06:30:36;;;;;;;2.00;1.40;;;8.30;99.90;;;;;;5080744;28;20103;-52
2024/02/19 06:33:02;;;;;;;1.83;1.60;;;8.30;99.90;;;;;;5076728;28;20055;-51
2024/02/19 06:35:28;;;;;;;2.42;1.65;;;8.20;99.90;;;;;;5079033;28;20023;-50
2024/02/19 06:37:53;;;;;;;3.15;1.83;;;8.20;99.90;;;;;;5079084;28;20028;-54
2024/02/19 06:40:19;;;;;;;2.45;1.40;;;8.20;99.90;;;;;;5078915;28;20054;-50
2024/02/19 06:42:44;;;;;;;1.85;1.52;;;8.20;99.90;;;;;;5079181;28;20024;-52
2024/02/19 06:45:10;;;;;;;1.42;1.33;;;8.20;99.90;;;;;;5080488;28;20477;-48
2024/02/19 06:47:35;;;;;;;1.77;1.27;;;8.20;99.90;;;;;;5079091;28;20020;-50
2024/02/19 06:50:02;;;;;;;1.67;1.20;;;8.20;99.90;;;;;;5078859;28;20579;-49
2024/02/19 06:52:27;;;;;;;2.00;1.40;;;8.20;99.90;;;;;;5077688;28;20027;-51
2024/02/19 06:54:53;;;;;;;1.35;1.10;;;8.20;99.90;;;;;;5078797;28;20032;-50
2024/02/19 06:57:19;;;;;;;1.27;1.00;;;8.10;99.90;;;;;;5078977;28;20049;-50
2024/02/19 06:59:45;;;;;;;1.58;1.20;;;8.10;99.90;;;;;;5080595;28;20028;-47
2024/02/19 07:02:10;;;;;;;1.30;0.80;;;8.10;99.90;;;;;;5071459;28;20512;-52
2024/02/19 07:04:39;;;;;;;0.90;0.80;;;8.00;99.90;;;;;;5078625;28;20031;-51
2024/02/19 07:07:08;;;;;;;0.82;0.63;;;8.00;99.90;;;;;;5078801;28;20024;-52
2024/02/19 07:09:38;;;;;;;0.73;0.73;;;8.00;99.90;;;;;;5077531;28;20068;-49
2024/02/19 07:12:05;;;;;;;0.82;0.75;;;8.00;99.90;;;;;;5078789;28;20020;-48
2024/02/19 07:14:30;;;;;;;0.70;0.60;;;8.00;99.90;;;;;;5082529;28;20512;-53
2024/02/19 07:16:56;;;;;;;0.52;0.52;;;8.00;99.90;;;;;;5081547;28;20025;-51
2024/02/19 07:19:21;;;;;;;1.98;0.55;;;8.00;99.90;;;;;;5083473;28;20078;-49
2024/02/19 07:21:47;;;;;;;0.68;0.55;;;8.00;99.90;;;;;;5083863;28;20027;-53
2024/02/19 07:24:13;;;;;;;0.52;0.32;;;8.00;99.90;;;;;;5081010;28;20111;-48
2024/02/19 07:26:38;;;;;;;0.45;0.45;;;8.00;99.90;;;;;;5082608;28;20039;-52
2024/02/19 07:29:04;;;;;;;0.50;0.50;;;8.00;99.90;;;;;;5082026;28;20033;-51
2024/02/19 07:31:30;;;;;;;0.45;0.45;;;8.00;99.90;;;;;;5081971;28;20032;-50
2024/02/19 07:33:55;;;;;;;0.70;0.57;;;8.10;99.90;;;;;;5084061;28;20039;-50
2024/02/19 07:36:22;;;;;;;0.65;0.52;;;8.10;99.90;;;;;;5081956;28;20035;-50
2024/02/19 07:38:47;;;;;;;1.80;0.75;;;8.00;99.90;;;;;;5081667;28;20031;-51
2024/02/19 07:41:16;;;;;;;0.70;0.60;;;8.00;99.90;;;;;;5082106;28;20061;-49
2024/02/19 07:43:44;;;;;;;0.68;0.68;;;8.10;99.90;;;;;;5082001;28;20032;-52
2024/02/19 07:46:09;;;;;;;0.50;0.50;;;8.00;99.90;;;;;;5081715;28;20020;-53
2024/02/19 07:48:35;;;;;;;1.20;0.95;;;8.10;99.90;;;;;;5081672;28;20045;-50
2024/02/19 07:51:00;;;;;;;1.05;0.80;;;8.10;99.90;;;;;;5081833;28;20032;-50
2024/02/19 07:53:26;;;;;;;1.50;1.00;;;8.10;99.90;;;;;;5083537;28;20040;-49
2024/02/19 07:56:05;;;;;;;9.48;2.70;;;8.10;99.90;;;;;;5081775;28;20396;-48
2024/02/19 07:58:30;;;;;;;6.28;2.55;;;8.10;99.90;;;;;;5078649;28;20085;-52
2024/02/19 08:00:56;;;;;;;3.13;2.00;;;8.10;99.90;;;;;;5083173;28;20032;-53
2024/02/19 08:03:21;;;;;;;3.13;1.60;;;8.20;99.90;;;;;;5074247;28;20095;-51
2024/02/19 08:05:48;;;;;;;3.30;1.90;;;8.20;99.90;;;;;;5080810;28;20040;-49
2024/02/19 08:08:14;;;;;;;2.63;1.20;;;8.20;99.90;;;;;;5081210;28;20060;-52
2024/02/19 08:10:39;;;;;;;1.10;0.90;;;8.20;99.90;;;;;;5081259;28;20565;-53
2024/02/19 08:13:06;;;;;;;1.63;0.98;;;8.20;99.90;;;;;;5081249;28;20115;-48
2024/02/19 08:15:32;;;;;;;0.95;0.82;;;8.10;99.90;;;;;;5083031;28;20524;-49
2024/02/19 08:17:57;;;;;;;0.73;0.68;;;8.10;99.90;;;;;;5083305;28;20020;-49
2024/02/19 08:20:23;;;;;;;0.82;0.63;;;8.10;99.90;;;;;;5079831;28;20024;-48
2024/02/19 08:22:48;;;;;;;0.75;0.50;;;8.10;99.90;;;;;;5079836;28;20119;-50
2024/02/19 08:25:14;;;;;;;0.68;0.57;;;8.10;99.90;;;;;;5080669;28;20031;-50
2024/02/19 08:27:39;;;;;;;1.92;0.50;;;8.10;99.90;;;;;;5081765;28;20032;-49
2024/02/19 08:30:05;;;;;;;1.60;0.57;;;8.10;99.90;;;;;;5081555;28;20051;-49
2024/02/19 08:32:31;;;;;;;0.45;0.30;;;8.20;99.90;;;;;;5088329;28;20035;-53
2024/02/19 08:34:56;;;;;;;1.13;0.40;;;8.30;99.90;;;;;;5082409;28;20479;-50
2024/02/19 08:37:22;;;;;;;0.82;0.30;;;8.30;99.90;;;;;;5081652;28;20077;-51
2024/02/19 08:39:48;;;;;;;0.55;0.30;;;8.40;99.90;;;;;;5079233;28;20081;-51
2024/02/19 08:42:13;;;;;;;0.25;0.25;;;8.40;99.90;;;;;;5079396;28;20027;-49
2024/02/19 08:44:39;;;;;;;0.40;0.30;;;8.40;99.90;;;;;;5080955;28;20512;-50
2024/02/19 08:47:07;;;;;;;0.50;0.30;;;8.40;99.90;;;;;;5079728;28;20028;-48
2024/02/19 08:49:33;;;;;;;0.25;0.20;;;8.40;99.90;;;;;;5080248;28;20682;-50
2024/02/19 08:51:59;;;;;;;0.20;0.20;;;8.30;99.90;;;;;;5080459;28;20028;-48
2024/02/19 08:54:24;;;;;;;0.15;0.15;;;8.30;99.90;;;;;;5081345;28;20027;-50
2024/02/19 08:56:49;;;;;;;0.52;0.40;;;8.30;99.90;;;;;;5075276;28;20031;-51
2024/02/19 08:59:15;;;;;;;0.95;0.38;;;8.20;99.90;;;;;;5080492;28;20104;-50
2024/02/19 09:01:41;;;;;;;0.85;0.10;;;8.30;99.90;;;;;;5077002;28;20012;-49
2024/02/19 09:04:08;;;;;;;0.15;0.15;;;8.30;99.90;;;;;;5073891;28;20585;-48
2024/02/19 09:06:33;;;;;;;0.13;0.13;;;8.30;99.90;;;;;;5080040;28;20150;-55
2024/02/19 09:09:00;;;;;;;1.80;0.20;;;8.30;99.90;;;;;;5075346;28;20127;-50
2024/02/19 09:11:25;;;;;;;1.20;0.30;;;8.30;99.90;;;;;;5083763;28;20039;-55
2024/02/19 09:13:51;;;;;;;0.73;0.20;;;8.30;99.90;;;;;;5080770;28;20058;-56
2024/02/19 09:16:16;;;;;;;0.93;0.30;;;8.20;99.90;;;;;;5082172;28;20026;-54
2024/02/19 09:18:43;;;;;;;0.22;0.20;;;8.20;99.90;;;;;;5077230;28;20393;-55
2024/02/19 09:21:09;;;;;;;1.02;0.50;;;8.10;99.90;;;;;;5080493;28;20111;-50
2024/02/19 09:23:35;;;;;;;3.53;0.63;;;8.10;99.90;;;;;;5081117;28;20504;-55
2024/02/19 09:26:01;;;;;;;0.52;0.40;;;8.00;99.90;;;;;;5078245;28;20020;-55
2024/02/19 09:28:27;;;;;;;0.93;0.50;;;7.90;99.90;;;;;;5079989;28;20051;-54
2024/02/19 09:30:52;;;;;;;0.90;0.43;;;7.80;99.90;;;;;;5079355;28;20488;-50
2024/02/19 09:33:18;;;;;;;0.50;0.50;;;7.80;99.90;;;;;;5081654;28;20044;-52
2024/02/19 09:35:43;;;;;;;0.98;0.50;;;7.80;99.90;;;;;;5079062;28;20036;-53
2024/02/19 09:38:09;;;;;;;1.13;0.75;;;7.80;99.90;;;;;;5079651;28;20024;-55
2024/02/19 09:40:36;;;;;;;0.90;0.80;;;7.80;99.90;;;;;;5078982;28;20562;-54
2024/02/19 09:43:02;;;;;;;1.70;0.85;;;7.90;99.90;;;;;;5078536;28;20055;-56
2024/02/19 09:45:27;;;;;;;1.13;1.02;;;7.90;99.90;;;;;;5079943;28;20051;-55
2024/02/19 09:47:58;;;;;;;2.10;1.83;;;8.00;99.90;;;;;;5082148;28;20028;-56
2024/02/19 09:50:27;;;;;;;1.45;1.20;;;8.00;99.90;;;;;;5076469;28;20532;-56
2024/02/19 09:53:02;;;;;;;1.92;0.80;;;8.10;99.90;;;;;;5084023;28;20036;-60
2024/02/19 09:55:28;;;;;;;2.45;1.25;;;8.10;99.90;;;;;;5075245;28;20024;-60
2024/02/19 09:57:56;;;;;;;1.48;1.10;;;8.10;99.90;;;;;;5081658;28;20081;-60
2024/02/19 10:00:21;;;;;;;0.90;0.90;;;8.20;99.90;;;;;;5078318;28;20024;-61
2024/02/19 10:02:47;;;;;;;1.42;1.00;;;8.10;99.90;;;;;;5079315;28;20493;-60
2024/02/19 10:05:12;;;;;;;3.33;1.00;;;8.10;99.90;;;;;;5078870;28;20020;-61
2024/02/19 10:07:39;;;;;;;1.45;0.85;;;8.10;99.90;;;;;;5084647;28;20024;-60
2024/02/19 10:10:06;;;;;;;1.30;1.00;;;8.10;99.90;;;;;;5078848;28;20481;-60
2024/02/19 10:12:33;;;;;;;1.33;0.75;;;8.00;99.90;;;;;;5081736;28;20035;-60
2024/02/19 10:14:59;;;;;;;2.00;1.00;;;8.00;99.90;;;;;;5080329;28;20031;-60
2024/02/19 10:17:29;;;;;;;1.27;0.80;;;7.90;99.90;;;;;;5078981;28;20028;-61
2024/02/19 10:20:07;;;;;;;1.23;1.05;;;7.80;99.90;;;;;;5078835;28;20027;-62
2024/02/19 10:22:33;;;;;;;1.20;1.00;;;7.70;99.90;;;;;;5081068;28;20031;-63
2024/02/19 10:25:06;;;;;;;2.08;1.50;;;7.70;99.90;;;;;;5079125;28;20028;-64
2024/02/19 10:27:33;;;;;;;2.20;1.25;;;7.60;99.90;;;;;;5085862;28;20515;-62
2024/02/19 10:29:59;;;;;;;1.50;1.25;;;7.60;99.90;;;;;;5078871;28;20122;-62
2024/02/19 10:32:25;;;;;;;3.15;1.50;;;7.60;99.90;;;;;;5080309;28;20016;-62
2024/02/19 10:34:50;;;;;;;1.58;1.30;;;7.60;99.90;;;;;;5083157;28;20028;-62
2024/02/19 10:37:16;;;;;;;1.63;1.25;;;7.50;99.90;;;;;;5076846;28;20032;-63
2024/02/19 10:39:42;;;;;;;1.80;1.42;;;7.50;99.90;;;;;;5078991;28;20076;-62
2024/02/19 10:42:07;;;;;;;2.08;1.50;;;7.50;99.90;;;;;;5080495;28;20020;-62
2024/02/19 10:44:34;;;;;;;1.60;1.50;;;7.50;99.90;;;;;;5082300;28;20385;-63
2024/02/19 10:47:01;;;;;;;3.78;2.00;;;7.50;99.90;;;;;;5078832;28;20489;-63
2024/02/19 10:49:27;;;;;;;2.17;1.63;;;7.40;99.90;;;;;;5085933;28;20020;-63
2024/02/19 10:51:52;;;;;;;4.95;1.60;;;7.50;99.90;;;;;;5088349;28;20043;-63
2024/02/19 10:54:18;;;;;;;1.67;1.30;;;7.40;99.90;;;;;;5087047;28;20028;-63
2024/02/19 10:56:44;;;;;;;2.42;1.10;;;7.50;99.90;;;;;;5083188;28;20093;-63
2024/02/19 10:59:16;;;;;;;1.35;1.00;;;7.50;99.90;;;;;;5082560;28;20508;-63
2024/02/19 11:01:43;;;;;;;3.83;1.38;;;7.50;99.90;;;;;;5083375;28;20028;-63
2024/02/19 11:04:15;;;;;;;3.13;1.20;;;7.50;99.90;;;;;;5078794;28;20074;-63
2024/02/19 11:06:55;;;;;;;1.17;1.08;;;7.50;99.90;;;;;;5081994;28;20357;-62
2024/02/19 11:09:31;;;;;;;1.67;1.10;;;7.50;99.90;;;;;;5079336;28;20088;-63
2024/02/19 11:11:59;;;;;;;0.98;0.90;;;7.50;99.90;;;;;;5082331;28;20020;-62
2024/02/19 11:14:31;;;;;;;1.05;0.93;;;7.60;99.90;;;;;;5087960;28;20054;-62
2024/02/19 11:16:59;;;;;;;2.10;1.10;;;7.70;99.90;;;;;;5081240;28;20089;-63
2024/02/19 11:19:25;;;;;;;1.38;1.10;;;7.80;99.90;;;;;;5087385;28;20634;-63
2024/02/19 11:22:07;;;;;;;0.98;0.88;;;7.80;99.90;;;;;;5081681;28;20028;-63
2024/02/19 11:24:33;;;;;;;1.85;1.13;;;7.90;99.90;;;;;;5084379;28;20444;-63
2024/02/19 11:27:01;;;;;;;2.15;0.90;;;7.90;99.90;;;;;;5087313;28;20058;-63
2024/02/19 11:29:27;;;;;;;2.33;0.90;;;7.90;99.90;;;;;;5087411;28;20015;-63
2024/02/19 11:32:03;;;;;;;3.38;1.02;;;7.90;99.90;;;;;;5082144;28;20036;-63
2024/02/19 11:34:29;;;;;;;2.33;0.70;;;8.00;99.90;;;;;;5075314;28;20028;-63
2024/02/19 11:37:05;;;;;;;1.92;0.90;;;8.00;99.90;;;;;;5082549;28;20035;-63
2024/02/19 11:39:32;;;;;;;;;;;8.10;99.90;;;;;;5081197;28;20095;-63
2024/02/19 11:41:59;;;;;;;1.13;0.95;;;8.10;99.90;;;;;;5083486;28;19908;-63
2024/02/19 11:44:25;;;;;;;1.42;1.15;;;8.20;99.90;;;;;;5081902;28;20050;-63
2024/02/19 11:46:52;;;;;;;2.20;1.10;;;8.30;99.90;;;;;;5081503;28;20036;-63
2024/02/19 11:49:18;;;;;;;2.97;0.90;;;8.40;99.90;;;;;;5086918;28;20054;-63
2024/02/19 11:51:44;;;;;;;2.67;1.30;;;8.50;99.90;;;;;;5074772;28;20503;-63
2024/02/19 11:54:15;;;;;;;1.98;1.25;;;8.60;99.90;;;;;;5082736;28;20082;-63
2024/02/19 11:56:45;;;;;;;1.85;0.98;;;8.60;99.90;;;;;;5076467;28;20020;-63
2024/02/19 11:59:11;;;;;;;1.70;0.70;;;8.60;99.90;;;;;;5076365;28;20016;-63
2024/02/19 12:01:38;;;;;;;0.73;0.65;;;8.60;99.90;;;;;;5083492;28;20020;-63
2024/02/19 12:04:04;;;;;;;0.45;0.45;;;8.60;99.90;;;;;;5074197;28;20055;-63
2024/02/19 12:06:40;;;;;;;1.27;0.50;;;8.60;99.90;;;;;;5111646;27;20028;-63
2024/02/19 12:09:08;;;;;;;0.60;0.47;;;8.60;99.90;;;;;;5081006;28;20040;-63
2024/02/19 12:11:34;;;;;;;0.55;0.45;;;8.60;99.90;;;;;;5084814;28;20123;-63
2024/02/19 12:13:59;;;;;;;0.55;0.50;;;8.60;99.90;;;;;;5081198;28;20031;-63
2024/02/19 12:16:27;;;;;;;0.70;0.50;;;8.50;99.90;;;;;;5080692;28;20089;-63
2024/02/19 12:18:56;;;;;;;1.08;0.40;;;8.50;99.90;;;;;;5079924;28;20023;-63
2024/02/19 12:21:27;;;;;;;0.60;0.52;;;8.50;99.90;;;;;;5080615;28;20035;-63
2024/02/19 12:23:53;;;;;;;1.77;0.47;;;8.50;99.90;;;;;;5080431;28;20059;-62
2024/02/19 12:26:21;;;;;;;0.50;0.40;;;8.50;99.90;;;;;;5074390;28;20051;-63
2024/02/19 12:28:47;;;;;;;0.35;0.35;;;8.50;99.90;;;;;;5085608;28;20020;-63
2024/02/19 12:31:14;;;;;;;0.70;0.50;;;8.50;99.90;;;;;;5079435;28;20031;-63
2024/02/19 12:33:39;;;;;;;2.35;0.90;;;8.50;99.90;;;;;;5085914;28;20104;-63
2024/02/19 12:36:10;;;;;;;1.90;0.60;;;8.60;99.90;;;;;;5075491;28;20562;-63
2024/02/19 12:38:41;;;;;;;0.90;0.40;;;8.60;99.90;;;;;;5075967;28;20679;-63
2024/02/19 12:41:13;;;;;;;0.50;0.40;;;8.60;99.90;;;;;;5084108;28;20031;-62
2024/02/19 12:43:40;;;;;;;0.70;0.43;;;8.70;99.90;;;;;;5083039;28;20019;-62
2024/02/19 12:46:07;;;;;;;0.40;0.40;;;8.80;99.90;;;;;;5078157;28;20095;-62
2024/02/19 12:48:37;;;;;;;0.50;0.35;;;8.80;99.90;;;;;;5086668;28;21331;-62
2024/02/19 12:51:04;;;;;;;0.35;0.20;;;8.80;99.90;;;;;;5072840;28;20104;-62
2024/02/19 12:53:30;;;;;;;1.55;0.88;;;8.80;99.90;;;;;;5084607;28;20050;-62